Time;durP1;ratioP1;P1;durP2;ratioP2;P2;SDS_P1;SDS_P2;PMS_P1;PMS_P2;Temp;Humidity;BMP_temperature;BMP_pressure;BME280_temperature;BME280_humidity;BME280_pressure;Samples;Min_cycle;Max_cycle;Signal;HPM_P1;HPM_P2
2023/07/31 00:01:28;;;;;;;;;;;;;;;15.72;100.00;100719.56;5029783;28;20299;-85
2023/07/31 00:04:13;;;;;;;;;;;;;;;15.67;100.00;100722.53;5053761;28;20302;-92
2023/07/31 00:06:58;;;;;;;;;;;;;;;15.66;100.00;100718.19;5051102;28;19924;-87
2023/07/31 00:09:44;;;;;;;;;;;;;;;15.65;100.00;100724.47;5053805;28;19935;-84
2023/07/31 00:12:29;;;;;;;;;;;;;;;15.64;100.00;100719.25;5053171;28;19939;-87
2023/07/31 00:15:14;;;;;;;;;;;;;;;15.64;100.00;100724.56;5053520;28;19928;-90
2023/07/31 00:18:01;;;;;;;;;;;;;;;15.63;100.00;100720.22;5053360;28;20530;-85
2023/07/31 00:20:46;;;;;;;;;;;;;;;15.61;100.00;100721.16;5056044;28;19942;-90
2023/07/31 00:23:31;;;;;;;;;;;;;;;15.60;100.00;100727.44;5055402;28;19931;-90
2023/07/31 00:26:17;;;;;;;;;;;;;;;15.60;100.00;100724.78;5049265;28;19951;-89
2023/07/31 00:29:02;;;;;;;;;;;;;;;15.58;100.00;100721.38;5054715;28;19931;-87
2023/07/31 00:31:47;;;;;;;;;;;;;;;15.56;100.00;100717.97;5054295;28;19931;-90
2023/07/31 00:34:32;;;;;;;;;;;;;;;15.56;100.00;100717.97;5054176;28;19925;-87
2023/07/31 00:37:18;;;;;;;;;;;;;;;15.56;100.00;100715.28;5051503;28;19928;-88
2023/07/31 00:40:03;;;;;;;;;;;;;;;15.55;100.00;100718.91;5053411;28;19943;-86
2023/07/31 00:42:49;;;;;;;;;;;;;;;15.57;100.00;100709.00;5052248;28;20387;-87
2023/07/31 00:45:34;;;;;;;;;;;;;;;15.57;100.00;100709.00;5064509;28;19943;-90
2023/07/31 00:48:19;;;;;;;;;;;;;;;15.58;100.00;100710.69;5053458;28;19931;-90
2023/07/31 00:51:05;;;;;;;;;;;;;;;15.58;100.00;100704.53;5054939;28;20083;-85
2023/07/31 00:53:50;;;;;;;;;;;;;;;15.57;100.00;100700.13;5066131;28;19920;-88
2023/07/31 00:56:35;;;;;;;;;;;;;;;15.57;100.00;100695.66;5051544;28;19932;-89
2023/07/31 00:59:21;;;;;;;;;;;;;;;15.57;100.00;100703.66;5053874;28;19924;-90
2023/07/31 01:02:06;;;;;;;;;;;;;;;15.57;100.00;100700.97;5041563;28;20509;-88
2023/07/31 01:04:51;;;;;;;;;;;;;;;15.57;100.00;100697.44;5047576;28;20362;-89
2023/07/31 01:07:39;;;;;;;;;;;;;;;15.57;100.00;100705.44;5056367;28;19963;-87
2023/07/31 01:10:26;;;;;;;;;;;;;;;15.54;100.00;100701.22;5057554;28;19962;-89
2023/07/31 01:13:11;;;;;;;;;;;;;;;15.49;100.00;100692.66;5070105;28;19920;-89
2023/07/31 01:15:57;;;;;;;;;;;;;;;15.46;100.00;100690.19;5069325;28;19928;-87
2023/07/31 01:18:42;;;;;;;;;;;;;;;15.42;100.00;100691.38;5057014;28;19920;-87
2023/07/31 01:21:42;;;;;;;;;;;;;;;15.38;100.00;100682.72;5055589;28;19924;-87
2023/07/31 01:24:46;;;;;;;;;;;;;;;15.37;100.00;100674.81;5034924;28;20448;-88
2023/07/31 01:27:35;;;;;;;;;;;;;;;15.35;100.00;100688.25;5057760;28;19941;-87
2023/07/31 01:30:25;;;;;;;;;;;;;;;15.32;100.00;100683.97;5055859;28;19924;-88
2023/07/31 01:33:10;;;;;;;;;;;;;;;15.30;100.00;100677.91;5059154;28;19977;-88
2023/07/31 01:35:55;;;;;;;;;;;;;;;15.30;100.00;100679.72;5054851;28;19947;-89
2023/07/31 01:38:40;;;;;;;;;;;;;;;15.27;100.00;100672.81;5069601;28;19924;-89
2023/07/31 01:41:26;;;;;;;;;;;;;;;15.26;100.00;100672.88;5057234;28;20208;-89
2023/07/31 01:44:11;;;;;;;;;;;;;;;15.25;100.00;100666.69;5068451;28;19956;-89
2023/07/31 01:46:58;;;;;;;;;;;;;;;15.24;100.00;100659.66;5056186;28;19928;-87
2023/07/31 01:49:44;;;;;;;;;;;;;;;15.23;100.00;100659.75;5056732;28;20457;-89
2023/07/31 01:52:30;;;;;;;;;;;;;;;15.21;100.00;100659.88;5054967;28;20018;-89
2023/07/31 01:55:15;;;;;;;;;;;;;;;15.22;100.00;100656.25;5056416;28;19932;-91
2023/07/31 01:58:00;;;;;;;;;;;;;;;15.22;100.00;100653.59;5069115;28;20559;-90
2023/07/31 02:00:46;;;;;;;;;;;;;;;15.23;100.00;100657.94;5057388;28;19957;-89
2023/07/31 02:03:31;;;;;;;;;;;;;;;15.23;100.00;100649.94;5069475;28;19931;-89
2023/07/31 02:06:16;;;;;;;;;;;;;;;15.20;100.00;100643.00;5054753;28;20035;-89
2023/07/31 02:09:03;;;;;;;;;;;;;;;15.22;100.00;100642.91;5056001;28;19924;-88
2023/07/31 02:11:48;;;;;;;;;;;;;;;15.21;100.00;100636.72;5056400;28;20291;-89
2023/07/31 02:14:34;;;;;;;;;;;;;;;15.20;100.00;100627.00;5054005;28;19931;-88
2023/07/31 02:17:22;;;;;;;;;;;;;;;15.20;100.00;100632.34;5050894;28;20018;-86
2023/07/31 02:20:07;;;;;;;;;;;;;;;15.18;100.00;100638.75;5068186;28;21576;-87
2023/07/31 02:22:52;;;;;;;;;;;;;;;15.17;100.00;100626.38;5054960;28;19924;-88
2023/07/31 02:25:38;;;;;;;;;;;;;;;15.14;100.00;100626.59;5067567;28;19928;-86
2023/07/31 02:28:23;;;;;;;;;;;;;;;15.13;100.00;100622.19;5054968;28;20011;-87
2023/07/31 02:31:08;;;;;;;;;;;;;;;15.13;100.00;100624.84;5055607;28;19940;-87
2023/07/31 02:33:54;;;;;;;;;;;;;;;15.12;100.00;100617.81;5055513;28;19939;-89
2023/07/31 02:36:42;;;;;;;;;;;;;;;15.12;100.00;100617.81;5054801;28;19946;-90
2023/07/31 02:39:27;;;;;;;;;;;;;;;15.13;100.00;100624.84;5055237;28;19928;-89
2023/07/31 02:42:13;;;;;;;;;;;;;;;15.14;100.00;100621.25;5055742;28;19928;-87
2023/07/31 02:44:58;;;;;;;;;;;;;;;15.12;100.00;100618.69;5054202;28;19932;-87
2023/07/31 02:47:43;;;;;;;;;;;;;;;15.12;100.00;100617.81;5068444;28;19927;-86
2023/07/31 02:50:29;;;;;;;;;;;;;;;15.10;100.00;100635.75;5045467;28;19935;-88
2023/07/31 02:53:14;;;;;;;;;;;;;;;15.05;100.00;100618.25;5055472;28;19955;-85
2023/07/31 02:55:59;;;;;;;;;;;;;;;15.00;100.00;100608.84;5055419;28;19950;-86
2023/07/31 02:58:44;;;;;;;;;;;;;;;14.92;100.00;100606.69;5054404;28;19995;-86
2023/07/31 03:01:30;;;;;;;;;;;;;;;14.88;100.00;100610.56;5054723;28;19967;-86
2023/07/31 03:04:15;;;;;;;;;;;;;;;14.86;100.00;100601.81;5054863;28;19940;-86
2023/07/31 03:07:01;;;;;;;;;;;;;;;14.84;100.00;100603.72;5054879;28;19917;-87
2023/07/31 03:09:46;;;;;;;;;;;;;;;14.80;100.00;100595.94;5055587;28;19928;-86
2023/07/31 03:12:31;;;;;;;;;;;;;;;14.78;100.00;100595.16;5054072;28;19977;-86
2023/07/31 03:15:17;;;;;;;;;;;;;;;14.79;100.00;100596.91;5055091;28;19925;-87
2023/07/31 03:18:02;;;;;;;;;;;;;;;14.80;100.00;100585.28;5054996;28;20029;-87
2023/07/31 03:20:47;;;;;;;;;;;;;;;14.82;100.00;100594.97;5054082;28;20539;-87
2023/07/31 03:23:32;;;;;;;;;;;;;;;14.83;100.00;100592.22;5053106;28;19928;-86
2023/07/31 03:26:18;;;;;;;;;;;;;;;14.86;100.00;100580.50;5066829;28;19979;-86
2023/07/31 03:29:03;;;;;;;;;;;;;;;14.86;100.00;100592.00;5056315;28;20240;-83
2023/07/31 03:31:49;;;;;;;;;;;;;;;14.86;100.00;100588.50;5056599;28;19920;-82
2023/07/31 03:34:34;;;;;;;;;;;;;;;14.86;100.00;100589.31;5052674;28;19963;-82
2023/07/31 03:37:19;;;;;;;;;;;;;;;14.87;100.00;100590.19;5052092;28;19928;-82
2023/07/31 03:40:05;;;;;;;;;;;;;;;14.86;100.00;100581.34;5054600;28;19920;-81
2023/07/31 03:42:50;;;;;;;;;;;;;;;14.88;100.00;100582.06;5052788;28;19924;-82
2023/07/31 03:45:35;;;;;;;;;;;;;;;14.89;100.00;100573.16;5066239;28;20066;-83
2023/07/31 03:48:21;;;;;;;;;;;;;;;14.90;100.00;100564.19;5052587;28;20567;-84
2023/07/31 03:51:06;;;;;;;;;;;;;;;14.92;100.00;100564.94;5067053;28;19925;-83
2023/07/31 03:53:51;;;;;;;;;;;;;;;14.94;100.00;100559.50;5053439;28;20387;-83
2023/07/31 03:56:38;;;;;;;;;;;;;;;14.97;100.00;100561.09;5052214;28;20322;-82
2023/07/31 03:59:23;;;;;;;;;;;;;;;14.97;100.00;100564.59;5053689;28;19956;-83
2023/07/31 04:02:14;;;;;;;;;;;;;;;14.98;100.00;100555.66;5053990;28;19947;-80
2023/07/31 04:04:59;;;;;;;;;;;;;;;15.00;100.00;100556.41;5053152;28;20445;-82
2023/07/31 04:07:44;;;;;;;;;;;;;;;15.00;100.00;100560.88;5052005;28;20516;-81
2023/07/31 04:10:31;;;;;;;;;;;;;;;15.00;100.00;100556.41;5052192;28;19971;-82
2023/07/31 04:13:16;;;;;;;;;;;;;;;15.02;100.00;100554.50;5053263;28;20014;-83
2023/07/31 04:16:01;;;;;;;;;;;;;;;15.02;100.00;100554.50;5052971;28;20013;-84
2023/07/31 04:18:47;;;;;;;;;;;;;;;15.03;100.00;100550.03;5052499;28;20269;-81
2023/07/31 04:21:32;;;;;;;;;;;;;;;15.02;100.00;100557.16;5053076;28;19954;-83
2023/07/31 04:24:23;;;;;;;;;;;;;;;15.02;100.00;100559.81;5053293;28;19921;-84
2023/07/31 04:27:09;;;;;;;;;;;;;;;15.03;100.00;100550.84;5065828;28;19948;-84
2023/07/31 04:29:54;;;;;;;;;;;;;;;15.04;100.00;100549.06;5053281;28;20139;-86
2023/07/31 04:32:39;;;;;;;;;;;;;;;15.04;100.00;100557.91;5051745;28;19935;-84
2023/07/31 04:35:25;;;;;;;;;;;;;;;15.06;100.00;100557.78;5066275;28;20042;-82
2023/07/31 04:38:10;;;;;;;;;;;;;;;15.05;100.00;100554.25;5053420;28;19964;-85
2023/07/31 04:40:55;;;;;;;;;;;;;;;15.06;100.00;100555.13;5052848;28;19928;-82
2023/07/31 04:43:41;;;;;;;;;;;;;;;15.06;100.00;100550.66;5053329;28;20442;-83
2023/07/31 04:46:26;;;;;;;;;;;;;;;15.08;100.00;100542.53;5065953;28;19936;-83
2023/07/31 04:49:11;;;;;;;;;;;;;;;15.06;100.00;100539.13;5053032;28;20108;-82
2023/07/31 04:51:56;;;;;;;;;;;;;;;15.04;100.00;100543.72;5066218;28;19947;-82
2023/07/31 04:54:42;;;;;;;;;;;;;;;15.02;100.00;100535.81;5052286;28;20326;-83
2023/07/31 04:57:27;;;;;;;;;;;;;;;15.00;100.00;100535.09;5052738;28;20383;-85
2023/07/31 05:00:12;;;;;;;;;;;;;;;14.99;100.00;100532.53;5052188;28;19929;-87
2023/07/31 05:02:58;;;;;;;;;;;;;;;14.99;100.00;100538.69;5052663;28;19924;-84
2023/07/31 05:05:43;;;;;;;;;;;;;;;14.99;100.00;100527.19;5053032;28;19928;-86
2023/07/31 05:08:28;;;;;;;;;;;;;;;15.00;100.00;100523.56;5052692;28;20352;-86
2023/07/31 05:11:14;;;;;;;;;;;;;;;15.01;100.00;100526.13;5066097;28;19928;-88
2023/07/31 05:13:59;;;;;;;;;;;;;;;15.03;100.00;100521.53;5052909;28;21681;-85
2023/07/31 05:16:44;;;;;;;;;;;;;;;15.06;100.00;100524.00;5052341;28;19924;-89
2023/07/31 05:19:30;;;;;;;;;;;;;;;15.11;100.00;100520.16;5054171;28;19935;-90
2023/07/31 05:22:15;;;;;;;;;;;;;;;15.14;100.00;100509.28;5052803;28;19921;-91
2023/07/31 05:25:00;;;;;;;;;;;;;;;15.17;100.00;100514.38;5052736;28;19935;-87
2023/07/31 05:27:45;;;;;;;;;;;;;;;15.20;100.00;100506.19;5053617;28;19925;-87
2023/07/31 05:30:31;;;;;;;;;;;;;;;15.23;100.00;100507.75;5065834;28;19928;-90
2023/07/31 05:33:16;;;;;;;;;;;;;;;15.25;100.00;100496.03;5054598;28;20399;-89
2023/07/31 05:36:01;;;;;;;;;;;;;;;15.25;100.00;100506.69;5053342;28;19978;-87
2023/07/31 05:38:47;;;;;;;;;;;;;;;15.25;100.00;100498.69;5052663;28;19924;-85
2023/07/31 05:41:32;;;;;;;;;;;;;;;15.28;100.00;100485.16;5053696;28;19924;-89
2023/07/31 05:44:17;;;;;;;;;;;;;;;15.32;100.00;100491.13;5052252;28;20655;-92
2023/07/31 05:47:02;;;;;;;;;;;;;;;15.35;100.00;100493.56;5055692;28;20460;-92
2023/07/31 05:49:49;;;;;;;;;;;;;;;15.36;100.00;100486.44;5054440;28;20058;-95
2023/07/31 05:52:34;;;;;;;;;;;;;;;15.40;100.00;100494.09;5059095;28;19928;-89
2023/07/31 05:55:20;;;;;;;;;;;;;;;15.41;100.00;100481.63;5059318;28;20605;-95
2023/07/31 05:58:06;;;;;;;;;;;;;;;15.45;100.00;100485.75;5059150;28;19931;-94
2023/07/31 06:00:51;;;;;;;;;;;;;;;15.50;100.00;100482.75;5056706;28;19978;-91
2023/07/31 06:03:36;;;;;;;;;;;;;;;15.53;100.00;100486.03;5073680;28;20522;-89
2023/07/31 06:06:21;;;;;;;;;;;;;;;15.57;100.00;100484.00;5058294;28;20018;-95
2023/07/31 06:09:07;;;;;;;;;;;;;;;15.59;100.00;100482.94;5056384;28;19924;-89
2023/07/31 06:11:52;;;;;;;;;;;;;;;15.64;100.00;100479.97;5056750;28;20434;-93
2023/07/31 06:14:37;;;;;;;;;;;;;;;15.65;100.00;100478.13;5059559;28;19920;-92
2023/07/31 06:17:23;;;;;;;;;;;;;;;15.68;100.00;100478.75;5058270;28;19928;-92
2023/07/31 06:20:08;;;;;;;;;;;;;;;15.68;100.00;100475.25;5058118;28;19920;-93
2023/07/31 06:22:53;;;;;;;;;;;;;;;15.71;100.00;100469.69;5057121;28;19974;-89
2023/07/31 06:25:42;;;;;;;;;;;;;;;15.73;100.00;100473.06;5044896;28;19970;-90
2023/07/31 06:28:31;;;;;;;;;;;;;;;15.74;100.00;100470.31;5058995;28;19931;-91
2023/07/31 06:31:20;;;;;;;;;;;;;;;15.75;100.00;100455.16;5057716;28;19924;-91
2023/07/31 06:34:05;;;;;;;;;;;;;;;15.72;100.00;100468.72;5058735;28;19977;-89
2023/07/31 06:36:50;;;;;;;;;;;;;;;15.72;100.00;100471.38;5046612;28;19952;-91
2023/07/31 06:39:37;;;;;;;;;;;;;;;15.69;100.00;100467.09;5058876;28;20397;-89
2023/07/31 06:42:22;;;;;;;;;;;;;;;15.69;100.00;100452.94;5070652;28;19929;-92
2023/07/31 06:45:08;;;;;;;;;;;;;;;15.69;100.00;100448.44;5060365;28;19921;-93
2023/07/31 06:47:53;;;;;;;;;;;;;;;15.72;100.00;100444.69;5061968;28;20362;-89
2023/07/31 06:50:38;;;;;;;;;;;;;;;15.79;100.00;100443.28;5056110;28;19924;-88
2023/07/31 06:53:23;;;;;;;;;;;;;;;15.85;100.00;100440.16;5057383;28;19928;-90
2023/07/31 06:56:12;;;;;;;;;;;;;;;15.86;100.00;100431.16;5056924;28;19924;-89
2023/07/31 06:58:57;;;;;;;;;;;;;;;15.88;100.00;100428.41;5066750;28;19928;-87
2023/07/31 07:01:42;;;;;;;;;;;;;;;15.91;100.00;100421.97;5055483;28;20383;-91
2023/07/31 07:04:28;;;;;;;;;;;;;;;15.93;100.00;100426.28;5074350;28;20363;-90
2023/07/31 07:07:13;;;;;;;;;;;;;;;15.96;100.00;100422.53;5063839;28;19928;-91
2023/07/31 07:10:03;;;;;;;;;;;;;;;16.00;100.00;100422.19;5064265;28;19920;-93
2023/07/31 07:12:48;;;;;;;;;;;;;;;16.03;100.00;100410.41;5068757;28;19925;-95
2023/07/31 07:15:34;;;;;;;;;;;;;;;16.03;100.00;100407.75;5067938;28;19924;-92
2023/07/31 07:18:20;;;;;;;;;;;;;;;16.04;100.00;100406.78;5063887;28;19973;-89
2023/07/31 07:21:06;;;;;;;;;;;;;;;16.07;100.00;100406.53;5062709;28;19916;-91
2023/07/31 07:23:51;;;;;;;;;;;;;;;16.10;100.00;100400.97;5066028;28;19927;-92
2023/07/31 07:26:36;;;;;;;;;;;;;;;16.12;100.00;100408.88;5068618;28;19972;-88
2023/07/31 07:29:21;;;;;;;;;;;;;;;16.14;100.00;100397.09;5063065;28;19925;-89
2023/07/31 07:32:07;;;;;;;;;;;;;;;16.18;100.00;100392.34;5057341;28;19984;-90
2023/07/31 07:34:52;;;;;;;;;;;;;;;16.19;100.00;100394.09;5073293;28;19924;-92
2023/07/31 07:37:37;;;;;;;;;;;;;;;16.23;100.00;100394.69;5061933;28;19928;-95
2023/07/31 07:40:23;;;;;;;;;;;;;;;16.24;100.00;100396.41;5074004;28;19989;-95
2023/07/31 07:43:08;;;;;;;;;;;;;;;16.28;100.00;100387.16;5060043;28;19954;-93
2023/07/31 07:45:53;;;;;;;;;;;;;;;16.31;100.00;100386.94;5061296;28;19920;-91
2023/07/31 07:48:38;;;;;;;;;;;;;;;16.33;100.00;100397.53;5078909;28;19916;-96
2023/07/31 07:51:24;;;;;;;;;;;;;;;16.37;100.00;100391.81;5074912;28;19920;-95
2023/07/31 07:54:12;;;;;;;;;;;;;;;16.38;100.00;100377.47;5088756;28;19954;-95
2023/07/31 07:56:57;;;;;;;;;;;;;;;16.39;100.00;100381.00;5081504;28;19923;-96
2023/07/31 07:59:42;;;;;;;;;;;;;;;16.41;100.00;100377.22;5078395;28;19917;-95
2023/07/31 08:02:28;;;;;;;;;;;;;;;16.47;100.00;100375.94;5068966;28;20011;-96
2023/07/31 08:05:13;;;;;;;;;;;;;;;16.51;100.00;100371.19;5067749;28;19924;-96
2023/07/31 08:07:58;;;;;;;;;;;;;;;16.58;100.00;100366.19;5077168;28;19964;-96
2023/07/31 08:10:44;;;;;;;;;;;;;;;16.62;100.00;100368.50;5069343;28;20275;-91
2023/07/31 08:13:29;;;;;;;;;;;;;;;16.65;100.00;100367.41;5063496;28;20018;-94
2023/07/31 08:16:14;;;;;;;;;;;;;;;16.67;100.00;100360.97;5063481;28;20432;-88
2023/07/31 08:19:00;;;;;;;;;;;;;;;16.73;100.00;100364.16;5076899;28;20333;-91
2023/07/31 08:21:45;;;;;;;;;;;;;;;16.70;100.00;100352.75;5064888;28;20314;-91
2023/07/31 08:24:30;;;;;;;;;;;;;;;16.70;100.00;100363.44;5071711;28;19917;-96
2023/07/31 08:27:15;;;;;;;;;;;;;;;16.70;100.00;100355.41;5069442;28;20558;-94
2023/07/31 08:30:01;;;;;;;;;;;;;;;16.69;100.00;100355.53;5069805;28;19924;-92
2023/07/31 08:32:46;;;;;;;;;;;;;;;16.72;100.00;100352.59;5072046;28;19965;-92
2023/07/31 08:35:31;;;;;;;;;;;;;;;16.74;100.00;100355.16;5070306;28;20094;-95
2023/07/31 08:38:17;;;;;;;;;;;;;;;16.78;100.00;100349.44;5063906;28;20025;-89
2023/07/31 08:41:05;;;;;;;;;;;;;;;16.81;100.00;100340.31;5078016;28;20406;-89
2023/07/31 08:43:50;;;;;;;;;;;;;;;16.86;100.00;100354.19;5070942;28;19924;-95
2023/07/31 08:46:35;;;;;;;;;;;;;;;16.85;100.00;100349.81;5045858;28;20347;-92
2023/07/31 08:49:21;;;;;;;;;;;;;;;16.87;100.00;100358.56;5073186;28;20480;-92
2023/07/31 08:52:06;;;;;;;;;;;;;;;16.89;100.00;100350.41;5043703;28;19924;-92
2023/07/31 08:54:52;;;;;;;;;;;;;;;16.88;100.00;100351.41;5080342;28;20006;-89
2023/07/31 08:57:38;;;;;;;;;;;;;;;16.84;100.00;100348.13;5062245;28;19935;-91
2023/07/31 09:00:25;;;;;;;;;;;;;;;16.84;100.00;100350.78;5076668;28;20370;-95
2023/07/31 09:03:15;;;;;;;;;;;;;;;16.87;100.00;100350.53;5083398;28;20271;-94
2023/07/31 09:06:00;;;;;;;;;;;;;;;16.92;100.00;100351.03;5070731;28;19924;-92
2023/07/31 09:08:46;;;;;;;;;;;;;;;16.97;100.00;100345.28;5064679;28;19924;-84
2023/07/31 09:11:31;;;;;;;;;;;;;;;16.92;100.00;100343.00;5062818;28;20370;-91
2023/07/31 09:14:17;;;;;;;;;;;;;;;16.92;100.00;100350.16;5063577;28;19983;-89
2023/07/31 09:17:03;;;;;;;;;;;;;;;17.00;100.00;100346.88;5082377;28;19927;-91
2023/07/31 09:19:48;;;;;;;;;;;;;;;17.10;100.00;100338.00;5068809;28;19928;-90
2023/07/31 09:22:34;;;;;;;;;;;;;;;17.11;100.00;100333.53;5063775;28;19917;-91
2023/07/31 09:25:24;;;;;;;;;;;;;;;17.10;100.00;100334.47;5069332;28;19963;-93
2023/07/31 09:28:12;;;;;;;;;;;;;;;17.07;100.00;100337.41;5067625;28;20547;-91
2023/07/31 09:30:57;;;;;;;;;;;;;;;17.03;100.00;100327.94;5073227;28;19916;-93
2023/07/31 09:33:56;;;;;;;;;;;;;;;17.01;100.00;100335.19;5073265;28;19924;-88
2023/07/31 09:36:41;;;;;;;;;;;;;;;17.04;100.00;100329.63;5072999;28;19927;-95
2023/07/31 09:39:26;;;;;;;;;;;;;;;17.10;100.00;100324.66;5082095;28;19960;-94
2023/07/31 09:42:12;;;;;;;;;;;;;;;17.13;100.00;100334.25;5056294;28;20019;-86
2023/07/31 09:45:10;;;;;;;;;;;;;;;17.07;100.00;100345.44;5058696;28;19920;-84
2023/07/31 09:47:56;;;;;;;;;;;;;;;16.95;100.00;100332.03;5056589;28;19946;-88
2023/07/31 09:50:42;;;;;;;;;;;;;;;16.85;100.00;100339.13;5054778;28;20073;-84
2023/07/31 09:53:29;;;;;;;;;;;;;;;16.79;100.00;100329.75;5069748;28;19936;-83
2023/07/31 09:56:14;;;;;;;;;;;;;;;16.75;100.00;100331.00;5071307;28;19928;-87
2023/07/31 09:58:59;;;;;;;;;;;;;;;16.80;100.00;100328.81;5058990;28;19920;-87
2023/07/31 10:01:46;;;;;;;;;;;;;;;16.82;100.00;100323.31;5059104;28;20011;-91
2023/07/31 10:04:31;;;;;;;;;;;;;;;16.84;100.00;100324.91;5065780;28;19930;-96
2023/07/31 10:07:17;;;;;;;;;;;;;;;16.93;100.00;100317.97;5071992;28;20271;-94
2023/07/31 10:10:02;;;;;;;;;;;;;;;17.13;100.00;100318.19;5080730;28;19924;-93
2023/07/31 10:12:54;;;;;;;;;;;;;;;17.29;100.00;100311.59;5077058;28;19955;-95
2023/07/31 10:15:41;;;;;;;;;;;;;;;17.42;100.00;100309.59;5085517;28;19920;-94
2023/07/31 10:18:26;;;;;;;;;;;;;;;17.50;100.00;100311.63;5074857;28;19920;-91
2023/07/31 10:21:12;;;;;;;;;;;;;;;17.50;100.00;100323.16;5074357;28;19931;-93
2023/07/31 10:23:57;;;;;;;;;;;;;;;17.49;100.00;100318.81;5068613;28;19920;-84
2023/07/31 10:26:43;;;;;;;;;;;;;;;17.46;100.00;100307.50;5070574;28;19965;-86
2023/07/31 10:29:29;;;;;;;;;;;;;;;17.40;100.00;100313.38;5061593;28;19924;-90
2023/07/31 10:32:15;;;;;;;;;;;;;;;17.40;100.00;100308.00;5074236;28;19920;-89
2023/07/31 10:35:01;;;;;;;;;;;;;;;17.42;100.00;100306.91;5063365;28;20015;-83
2023/07/31 10:37:46;;;;;;;;;;;;;;;17.50;100.00;100301.75;5050464;28;20014;-91
2023/07/31 10:40:32;;;;;;;;;;;;;;;17.61;100.00;100300.88;5051735;28;19960;-89
2023/07/31 10:43:25;;;;;;;;;;;;;;;17.80;100.00;100304.66;5076881;28;19920;-88
2023/07/31 10:46:14;;;;;;;;;;;;;;;17.77;100.00;100313.81;5056587;28;20631;-90
2023/07/31 10:49:00;;;;;;;;;;;;;;;17.74;100.00;100311.41;5058015;28;20269;-87
2023/07/31 10:51:46;;;;;;;;;;;;;;;17.78;100.00;100315.50;5047791;28;20294;-87
2023/07/31 10:54:31;;;;;;;;;;;;;;;17.80;100.00;100314.56;5056112;28;19924;-87
2023/07/31 10:57:24;;;;;;;;;;;;;;;17.78;100.00;100315.50;5072671;28;19917;-88
2023/07/31 11:00:23;;;;;;;;;;;;;;;17.65;100.00;100322.88;5060721;28;19920;-92
2023/07/31 11:03:12;;;;;;;;;;;;;;;17.60;100.00;100317.91;5062631;28;19923;-91
2023/07/31 11:06:02;;;;;;;;;;;;;;;17.54;100.00;100314.91;5058901;28;20011;-87
2023/07/31 11:08:48;;;;;;;;;;;;;;;17.59;100.00;100307.34;5056441;28;19925;-90
2023/07/31 11:11:34;;;;;;;;;;;;;;;17.57;100.00;100315.50;5061516;28;19920;-96
2023/07/31 11:14:19;;;;;;;;;;;;;;;17.56;100.00;100331.69;5059998;28;19924;-90
2023/07/31 11:17:08;;;;;;;;;;;;;;;17.51;100.00;100324.91;5057198;28;20028;-83
2023/07/31 11:19:53;;;;;;;;;;;;;;;17.51;100.00;100326.72;5059765;28;19935;-87
2023/07/31 11:22:38;;;;;;;;;;;;;;;17.56;100.00;100315.63;5058635;28;20007;-86
2023/07/31 11:25:23;;;;;;;;;;;;;;;17.57;100.00;100315.50;5059532;28;19924;-92
2023/07/31 11:28:10;;;;;;;;;;;;;;;17.53;100.00;100327.44;5072878;28;19925;-89
2023/07/31 11:30:55;;;;;;;;;;;;;;;17.51;100.00;100316.00;5058766;28;19927;-89
2023/07/31 11:33:40;;;;;;;;;;;;;;;17.49;100.00;100320.66;5055343;28;19931;-85
2023/07/31 11:36:26;;;;;;;;;;;;;;;17.47;100.00;100311.88;5056571;28;20016;-91
2023/07/31 11:39:11;;;;;;;;;;;;;;;17.47;100.00;100303.84;5069550;28;19928;-87
2023/07/31 11:42:00;;;;;;;;;;;;;;;17.56;100.00;100302.25;5056578;28;20207;-88
2023/07/31 11:44:47;;;;;;;;;;;;;;;17.63;100.00;100304.28;5056316;28;20014;-86
2023/07/31 11:47:36;;;;;;;;;;;;;;;17.72;100.00;100299.13;5055811;28;21974;-87
2023/07/31 11:50:21;;;;;;;;;;;;;;;17.76;100.00;100303.25;5068085;28;20366;-89
2023/07/31 11:53:07;;;;;;;;;;;;;;;17.80;100.00;100303.84;5067893;28;19924;-88
2023/07/31 11:55:52;;;;;;;;;;;;;;;17.87;100.00;100296.97;5068147;28;19924;-86
2023/07/31 11:58:38;;;;;;;;;;;;;;;17.83;100.00;100303.56;5072133;28;19927;-86
2023/07/31 12:01:23;;;;;;;;;;;;;;;17.84;100.00;100307.94;5053801;28;19924;-87
2023/07/31 12:04:08;;;;;;;;;;;;;;;17.81;100.00;100306.38;5056916;28;19916;-87
2023/07/31 12:06:54;;;;;;;;;;;;;;;17.76;100.00;100304.09;5060824;28;19975;-86
2023/07/31 12:09:52;;;;;;;;;;;;;;;17.73;100.00;100308.84;5073587;28;19925;-96
2023/07/31 12:12:38;;;;;;;;;;;;;;;17.77;100.00;100307.63;5063970;28;19920;-92
2023/07/31 12:15:28;;;;;;;;;;;;;;;17.80;100.00;100320.72;5064572;28;19924;-91
2023/07/31 12:18:15;;;;;;;;;;;;;;;17.87;100.00;100313.03;5061932;28;19931;-88
2023/07/31 12:21:01;;;;;;;;;;;;;;;17.87;100.00;100321.91;5056417;28;20375;-86
2023/07/31 12:23:46;;;;;;;;;;;;;;;17.85;100.00;100320.34;5069586;28;19927;-86
2023/07/31 12:26:35;;;;;;;;;;;;;;;17.87;100.00;100316.56;5055977;28;19929;-86
2023/07/31 12:29:20;;;;;;;;;;;;;;;17.91;100.00;100312.66;5066104;28;19931;-92
2023/07/31 12:32:28;;;;;;;;;;;;;;;17.93;100.00;100309.84;5054446;28;20383;-88
2023/07/31 12:35:13;;;;;;;;;;;;;;;17.97;100.00;100303.22;5054143;28;19924;-85
2023/07/31 12:38:00;;;;;;;;;;;;;;;18.01;100.00;100293.97;5066296;28;19978;-87
2023/07/31 12:40:46;;;;;;;;;;;;;;;17.97;100.00;100297.88;5068538;28;20366;-84
2023/07/31 12:43:31;;;;;;;;;;;;;;;17.96;100.00;100292.66;5053265;28;19931;-83
2023/07/31 12:46:17;;;;;;;;;;;;;;;17.98;100.00;100301.41;5054081;28;19928;-82
2023/07/31 12:49:05;;;;;;;;;;;;;;;18.01;100.00;100290.44;5055910;28;20010;-86
2023/07/31 12:51:53;;;;;;;;;;;;;;;18.02;100.00;100289.44;5053027;28;19924;-89
2023/07/31 12:54:42;;;;;;;;;;;;;;;18.01;100.00;100288.59;5054443;28;19931;-86
2023/07/31 12:57:27;;;;;;;;;;;;;;;18.06;100.00;100293.59;5052490;28;19932;-85
2023/07/31 13:00:13;;;;;;;;;;;;;;;18.09;100.00;100289.81;5055117;28;19928;-82
2023/07/31 13:02:59;;;;;;;;;;;;;;;18.09;100.00;100285.28;5069158;28;20090;-81
2023/07/31 13:05:45;;;;;;;;;;;;;;;18.11;100.00;100279.81;5069283;28;19921;-81
2023/07/31 13:08:30;;;;;;;;;;;;;;;18.10;100.00;100278.13;5056872;28;19965;-83
2023/07/31 13:11:15;;;;;;;;;;;;;;;18.08;100.00;100280.91;5070434;28;19935;-81
2023/07/31 13:14:01;;;;;;;;;;;;;;;18.04;100.00;100284.81;5057105;28;19956;-81
2023/07/31 13:16:46;;;;;;;;;;;;;;;18.04;100.00;100282.16;5056139;28;19924;-83
2023/07/31 13:19:31;;;;;;;;;;;;;;;18.05;100.00;100283.88;5052429;28;19955;-82
2023/07/31 13:22:17;;;;;;;;;;;;;;;18.07;100.00;100278.38;5057871;28;19928;-84
2023/07/31 13:25:02;;;;;;;;;;;;;;;18.11;100.00;100286.03;5056258;28;21042;-82
2023/07/31 13:27:48;;;;;;;;;;;;;;;18.11;100.00;100291.38;5055865;28;20015;-82
2023/07/31 13:30:33;;;;;;;;;;;;;;;18.11;100.00;100311.94;5056704;28;19920;-83
2023/07/31 13:33:18;;;;;;;;;;;;;;;18.14;100.00;100314.38;5047699;28;20055;-85
2023/07/31 13:36:04;;;;;;;;;;;;;;;18.11;100.00;100307.44;5055248;28;19930;-83
2023/07/31 13:38:49;;;;;;;;;;;;;;;18.17;100.00;100314.09;5056508;28;19924;-83
2023/07/31 13:41:34;;;;;;;;;;;;;;;18.22;100.00;100314.56;5056072;28;19971;-83
2023/07/31 13:44:20;;;;;;;;;;;;;;;18.26;100.00;100309.78;5070124;28;20010;-84
2023/07/31 13:47:05;;;;;;;;;;;;;;;18.28;100.00;100299.78;5055756;28;19985;-84
2023/07/31 13:49:50;;;;;;;;;;;;;;;18.25;100.00;100282.13;5056289;28;20000;-84
2023/07/31 13:52:36;;;;;;;;;;;;;;;18.23;100.00;100269.84;5047238;28;20009;-84
2023/07/31 13:55:21;;;;;;;;;;;;;;;18.23;100.00;100270.72;5056501;28;19924;-84
2023/07/31 13:58:06;;;;;;;;;;;;;;;18.27;100.00;100258.75;5056572;28;19971;-83
2023/07/31 14:00:52;;;;;;;;;;;;;;;18.30;100.00;100258.47;5056513;28;20335;-86
2023/07/31 14:03:37;;;;;;;;;;;;;;;18.31;100.00;100257.47;5055911;28;19920;-86